This is the latest recevied weather packets stored in our database for station/object IT9CYW-12. If no packets are shown the sender has not sent any weather packets the latest 1 day(s).
| Time | Temp. | Humidity | Pressure | Rain* | Wind** | Luminosity | Snow |
|---|---|---|---|---|---|---|---|
| 1778012687 | 17.22° C | 82% | 978 hPa | - | 0.45 m/s, 32° | 0 W/m² | - |
| 1778011786 | 17.78° C | 75% | 978 hPa | - | 0 m/s | 0 W/m² | - |
| 1778010886 | 17.22° C | 74% | 977.9 hPa | - | 0 m/s | 0 W/m² | - |
| 1778009986 | 16.67° C | 80% | 978.2 hPa | - | 0 m/s | 0 W/m² | - |
| 1778008206 | 16.67° C | 85% | 978.2 hPa | - | 0 m/s | 0 W/m² | - |
| 1778007305 | 16.67° C | 84% | 978.2 hPa | - | 0 m/s | 0 W/m² | - |
| 1778006405 | 16.67° C | 85% | 978.2 hPa | - | 0 m/s | 0 W/m² | - |
| 1778005504 | 16.67° C | 85% | 978.2 hPa | - | 0 m/s | 0 W/m² | - |
| 1778004604 | 17.22° C | 85% | 978.2 hPa | - | 0 m/s | 0 W/m² | - |
| 1778003703 | 17.22° C | 85% | 978.2 hPa | - | 0 m/s | 1 W/m² | - |
| 1778002803 | 17.22° C | 84% | 978.2 hPa | - | 0 m/s | 3 W/m² | - |
| 1778001903 | 17.22° C | 83% | 978.5 hPa | - | 0 m/s | 10 W/m² | - |
| 1778000087 | 17.78° C | 78% | 978.7 hPa | - | 0 m/s | 40 W/m² | - |
| 1777999187 | 17.78° C | 75% | 978.7 hPa | - | 0.45 m/s, 138° | 57 W/m² | - |
| 1777998286 | 17.78° C | 74% | 978.7 hPa | - | 0.45 m/s, 107° | 77 W/m² | - |
| 1777997386 | 17.78° C | 74% | 978.7 hPa | - | 0.45 m/s, 103° | 97 W/m² | - |
| 1777996486 | 17.78° C | 72% | 978.9 hPa | - | 0.45 m/s, 59° | 93 W/m² | - |
| 1777995586 | 18.33° C | 71% | 978.9 hPa | - | 0.89 m/s, 45° | 117 W/m² | - |
| 1777994686 | 18.33° C | 72% | 979 hPa | - | 0.89 m/s, 65° | 98 W/m² | - |
| 1777993785 | 18.89° C | 69% | 979 hPa | - | 0.89 m/s, 114° | 225 W/m² | - |
| 1777992885 | 18.89° C | 66% | 979 hPa | - | 1.79 m/s, 65° | 170 W/m² | - |
| 1777991985 | 19.44° C | 65% | 978.7 hPa | - | 0 m/s | 301 W/m² | - |
| 1777991085 | 20° C | 70% | 978.9 hPa | - | 0.45 m/s, 66° | 349 W/m² | - |
| 1777990185 | 20° C | 65% | 978.9 hPa | - | 0.89 m/s, 117° | 412 W/m² | - |
| 1777989285 | 20° C | 65% | 979.2 hPa | - | 1.79 m/s, 85° | 420 W/m² | - |
* Rain since midnight (hover to see other rain measurements)
** Current wind speed in m/s (hover to see current wind gust speed)